Terminal Aerodrome Forecast
Issued by NWS

Home | Current Version | Previous Version | Text Only | Print | Product List | Glossary On
Versions: 1 2 3 4 5 6 7 8 9 10 11 12 13 14 15
000
FTUS42 KTBW 011720
TAFLAL
TAF
KLAL 011720Z 0118/0218 09003KT P6SM SCT035 SCT250
     FM012000 09006KT P6SM VCTS SCT050CB BKN250
     FM020000 08004KT P6SM FEW040 SCT100 BKN250
     FM020600 00000KT P6SM BKN250
     FM021500 06005KT P6SM FEW030 SCT120 BKN250=

USA.gov is the U.S. government's official web portal to all federal, state and local government web resources and services.